Saskatoon John G. Diefenbaker International Airport
CYXE : now visible

Airfield :











YOU CAN JOIN US ON...

 
LOGIN :

Register | Disclaimer

   EN    FR    IT 

 









Legend :    VFR   Marginal VFR   IFR   Intensive IFR   Very Intensive IFR
Visi :
Ceiling :
>= 8 km
>= 3000ft
5 to 8 km
1000 to 3000 ft
1500m to 5 km
500 to 1000 ft
800 to 1500m
200 to 500 ft
< 800m
< 200 ft
Symbols :   Thunderstorms  Fog  Heavy snow  Heavy precipitations  Wind > 20 kt






- Airport Elevation : 1653 ft
- IATA code : YXE


CYXE - Saskatoon John G. Diefenbaker International

CURRENT METAR :
  • 221219Z 05004KT 3SM BR VV002 M13/M15 A2973 RMK FG8 SLP106

EXPIRED METARs :
  • 221200Z 36002KT 10SM BKN004 OVC020 M15/M16 A2973 RMK ST5SC3 SLP109
  • 221149Z 02003KT 280V020 6SM BR BKN006 M16/M18 A2973 RMK ST6 VIS W-NW 1 SLP108
  • 221130Z 25003KT 12SM BKN008 M16/M18 A2973 RMK ST6 SLP107
  • 221100Z 17002KT 15SM SCT170 M15/M17 A2971 RMK AC3 SLP101
  • 221000Z 22004KT 15SM SKC M15/M17 A2972 RMK SLP103

TAF AMD TAF CYXE
Valid from the 22 at 12:00 until the 23 at 12:00 UTC


221207Z 2212/2312 VRB03KT P6SM BKN005 OVC150
TEMPO 2212/2216 SCT005 BKN025 OVC150
PROB30 2212/2216 1SM BR
FM221600 VRB03KT P6SM FEW006 BKN015 OVC080
TEMPO 2216/2220 SCT015 OVC080
FM222000 11010KT P6SM BKN025 OVC100
TEMPO 2220/2312 5SM -SHSN SCT008 OVC015
PROB30 2304/2312 11/2SM -SHSN BR RMK NXT FCST BY 221800Z



MET'MAP, your aeronautical weather chart ! - Copyright ORBIFLY December 2007 - Disclaimer

ORBIFLY MET'MAP TEAM :

Programming & Development : Alexandra Zaïnal
Concept & original design : Baudouin d'Aumeries
Assistance for programming : Marc-Olivier Méhu
Technical & hardware support : Manuel Goepfert

Contact : metmap@orbifly.com




SOURCES & CREDITS :

   NOAA       Earth
Advisory